KHPN/HPN METAR and TAF weather

Enter ICAO airport designator
Station Type Date Time Source
KHPN METAR 2019/02/16 06:56 UTC NOAA

KHPN 160656Z 31012KT 10SM SCT080 04/M04 A2972 RMK AO2 SLP068 T00391044


Station Type Date Time Source
KHPN Decoded METAR 2019/02/16 06:56 UTC NOAA

WHITE PLAINS WESTCHESTER, NY, United States (KHPN) 41-04N 073-42W 121M
Feb 16, 2019 - 01:56 AM EST / 2019.02.16 0656 UTC
Wind: from the NW (310 degrees) at 14 MPH (12 KT):0
Visibility: 10 mile(s):0
Sky conditions: partly cloudy
Temperature: 39.0 F (3.9 C)
Dew Point: 24.1 F (-4.4 C)
Relative Humidity: 54%
Pressure (altimeter): 29.72 in. Hg (1006 hPa)
ob: KHPN 160656Z 31012KT 10SM SCT080 04/M04 A2972 RMK AO2 SLP068 T00391044
cycle: 7

Station Type Date Time Source
KHPN TAF 2019/02/16 06:42 UTC NOAA

TAF KHPN 160540Z 1606/1706 31012KT P6SM SCT090 BKN200
FM160900 32009KT P6SM SCT200
FM161500 32011KT P6SM SCT200
FM162300 34007KT P6SM SKC
AMD NOT SKED


Example: see airport list